Time;durP1;ratioP1;P1;durP2;ratioP2;P2;SDS_P1;SDS_P2;PMS_P1;PMS_P2;Temp;Humidity;BMP_temperature;BMP_pressure;BME280_temperature;BME280_humidity;BME280_pressure;Samples;Min_cycle;Max_cycle;Signal;HPM_P1;HPM_P2
2024/04/20 00:02:01;;;;;;;884.40;821.10;;;5.50;99.90;;;;;;5526019;25;20536;-71
2024/04/20 00:04:32;;;;;;;891.53;827.73;;;5.50;99.90;;;;;;5526678;25;20581;-71
2024/04/20 00:07:01;;;;;;;884.93;821.23;;;5.60;99.90;;;;;;5526670;25;20524;-71
2024/04/20 00:09:29;;;;;;;881.80;818.10;;;5.50;99.90;;;;;;5511548;25;20902;-71
2024/04/20 00:11:58;;;;;;;880.07;816.27;;;5.40;99.90;;;;;;5526098;25;20456;-71
2024/04/20 00:14:26;;;;;;;881.63;817.93;;;5.40;99.90;;;;;;5496229;25;20461;-71
2024/04/20 00:16:55;;;;;;;883.47;819.17;;;5.40;99.90;;;;;;5527342;25;20937;-71
2024/04/20 00:19:24;;;;;;;876.30;812.10;;;5.40;99.90;;;;;;5527569;25;20516;-71
2024/04/20 00:21:55;;;;;;;876.70;812.40;;;5.40;99.90;;;;;;5526923;25;20509;-72
2024/04/20 00:24:21;;;;;;;879.40;815.30;;;5.40;99.90;;;;;;5511328;25;20460;-70
2024/04/20 00:26:49;;;;;;;879.87;815.77;;;5.40;99.90;;;;;;5518752;25;20575;-71
2024/04/20 00:29:18;;;;;;;880.20;816.00;;;5.40;99.90;;;;;;5504271;26;20457;-72
2024/04/20 00:31:46;;;;;;;874.20;810.10;;;5.40;99.90;;;;;;5510790;26;20464;-71
2024/04/20 00:34:15;;;;;;;879.00;814.63;;;5.40;99.90;;;;;;5526314;25;20575;-71
2024/04/20 00:36:43;;;;;;;871.60;807.20;;;5.30;99.90;;;;;;5504911;25;20521;-71
2024/04/20 00:39:14;;;;;;;881.90;817.20;;;5.30;99.90;;;;;;5489066;26;20564;-72
2024/04/20 00:41:43;;;;;;;900.83;827.33;;;5.20;99.90;;;;;;5509668;26;20452;-70
2024/04/20 00:44:11;;;;;;;1020.53;932.87;;;5.20;99.90;;;;;;5497490;25;20585;-71
2024/04/20 00:46:40;;;;;;;1120.60;999.90;;;5.20;99.90;;;;;;5524821;26;20464;-71
2024/04/20 00:49:10;;;;;;;1124.43;999.90;;;5.20;99.90;;;;;;5526157;25;20640;-70
2024/04/20 00:51:38;;;;;;;1125.97;999.90;;;5.10;99.90;;;;;;5524934;25;20529;-70
2024/04/20 00:54:07;;;;;;;1149.40;999.90;;;5.00;99.90;;;;;;5510637;25;20585;-70
2024/04/20 00:56:39;;;;;;;1141.10;999.90;;;5.00;99.90;;;;;;5524601;25;20488;-71
2024/04/20 00:59:09;;;;;;;1164.33;999.90;;;4.90;99.90;;;;;;5526173;25;20448;-71
2024/04/20 01:01:37;;;;;;;1160.87;999.90;;;4.90;99.90;;;;;;5489952;25;20609;-71
2024/04/20 01:04:06;;;;;;;1163.43;999.90;;;4.90;99.90;;;;;;5515786;26;20539;-71
2024/04/20 01:06:34;;;;;;;1161.97;999.90;;;4.90;99.90;;;;;;5522033;25;20585;-71
2024/04/20 01:09:03;;;;;;;1166.73;999.90;;;4.90;99.90;;;;;;5488885;26;20473;-72
2024/04/20 01:11:31;;;;;;;1145.90;999.90;;;4.90;99.90;;;;;;5491101;26;21162;-71
2024/04/20 01:14:03;;;;;;;1141.93;999.90;;;4.90;99.90;;;;;;5515544;25;21158;-71
2024/04/20 01:16:32;;;;;;;1163.50;999.90;;;4.90;99.90;;;;;;5522517;26;20818;-71
2024/04/20 01:19:01;;;;;;;1141.83;999.90;;;4.80;99.90;;;;;;5526134;25;20565;-70
2024/04/20 01:21:30;;;;;;;1151.90;999.90;;;4.80;99.90;;;;;;5525574;25;20825;-71
2024/04/20 01:24:02;;;;;;;1157.60;999.90;;;4.70;99.90;;;;;;5525768;25;20619;-71
2024/04/20 01:26:33;;;;;;;1142.90;999.90;;;4.70;99.90;;;;;;5492485;25;20474;-71
2024/04/20 01:29:01;;;;;;;1135.10;999.90;;;4.80;99.90;;;;;;5488736;26;20465;-71
2024/04/20 01:31:30;;;;;;;1137.50;999.90;;;4.80;99.90;;;;;;5520783;26;20468;-71
2024/04/20 01:33:58;;;;;;;1112.00;988.67;;;4.70;99.90;;;;;;5525309;25;20664;-71
2024/04/20 01:36:27;;;;;;;1147.93;999.90;;;4.80;99.90;;;;;;5525306;25;20569;-71
2024/04/20 01:38:56;;;;;;;1130.13;999.90;;;4.70;99.90;;;;;;5525334;25;20519;-71
2024/04/20 01:41:25;;;;;;;1117.00;996.50;;;4.70;99.90;;;;;;5524433;25;20589;-71
2024/04/20 01:43:56;;;;;;;1124.90;999.90;;;4.60;99.90;;;;;;5524848;25;20539;-71
2024/04/20 01:46:24;;;;;;;1119.87;998.50;;;4.60;99.90;;;;;;5525423;25;20480;-71
2024/04/20 01:48:53;;;;;;;1128.07;999.90;;;4.60;99.90;;;;;;5516913;25;20672;-71
2024/04/20 01:51:21;;;;;;;1127.53;990.10;;;4.60;99.90;;;;;;5518823;26;20452;-71
2024/04/20 01:53:50;;;;;;;1125.03;989.93;;;4.60;99.90;;;;;;5525140;25;20460;-70
2024/04/20 01:56:18;;;;;;;1131.50;999.90;;;4.60;99.90;;;;;;5525030;25;20464;-71
2024/04/20 01:58:47;;;;;;;1126.03;999.90;;;4.60;99.90;;;;;;5510557;26;20474;-71
2024/04/20 02:01:18;;;;;;;1118.87;995.17;;;4.60;99.90;;;;;;5524184;25;20904;-71
2024/04/20 02:03:46;;;;;;;1115.07;992.37;;;4.60;99.90;;;;;;5503273;26;20458;-71
2024/04/20 02:06:15;;;;;;;1112.83;990.20;;;4.70;99.90;;;;;;5488190;26;20525;-70
2024/04/20 02:08:45;;;;;;;1118.17;993.33;;;4.60;99.90;;;;;;5487686;26;21137;-71
2024/04/20 02:11:13;;;;;;;1131.73;981.73;;;4.70;99.90;;;;;;5501037;26;20461;-71
2024/04/20 02:13:42;;;;;;;1125.63;978.00;;;4.70;99.90;;;;;;5518894;25;20581;-71
2024/04/20 02:16:10;;;;;;;1161.33;999.60;;;4.90;99.90;;;;;;5488079;26;20572;-71
2024/04/20 02:18:42;;;;;;;1155.77;999.90;;;5.00;99.90;;;;;;5523220;26;21160;-71
2024/04/20 02:21:11;;;;;;;1137.60;991.53;;;5.10;99.90;;;;;;5510929;25;20462;-71
2024/04/20 02:23:42;;;;;;;1148.57;998.63;;;5.10;99.90;;;;;;5523021;26;20857;-70
2024/04/20 02:26:11;;;;;;;1135.87;990.53;;;5.10;99.90;;;;;;5524673;25;20453;-70
2024/04/20 02:28:39;;;;;;;1143.40;989.93;;;5.10;99.90;;;;;;5524571;25;20516;-71
2024/04/20 02:31:07;;;;;;;1138.90;985.80;;;5.10;99.90;;;;;;5496229;25;20506;-71
2024/04/20 02:33:36;;;;;;;1150.10;999.90;;;5.20;99.90;;;;;;5491641;26;20544;-71
2024/04/20 02:36:08;;;;;;;1159.40;999.90;;;5.20;99.90;;;;;;5524143;25;20476;-71
2024/04/20 02:38:36;;;;;;;1168.47;999.90;;;5.20;99.90;;;;;;5520258;25;20908;-71
2024/04/20 02:41:05;;;;;;;1201.83;999.90;;;5.30;99.90;;;;;;5499233;26;20517;-70
2024/04/20 02:43:33;;;;;;;1160.47;999.90;;;5.30;99.90;;;;;;5524471;25;20520;-71
2024/04/20 02:46:02;;;;;;;1163.60;999.90;;;5.30;99.90;;;;;;5524538;25;20461;-70
2024/04/20 02:48:30;;;;;;;1151.10;998.57;;;5.40;99.90;;;;;;5524417;25;20457;-70
2024/04/20 02:50:59;;;;;;;1189.37;994.90;;;5.40;99.90;;;;;;5524167;25;20574;-71
2024/04/20 02:53:30;;;;;;;1204.60;999.90;;;5.50;99.90;;;;;;5523044;25;20467;-71
2024/04/20 02:55:58;;;;;;;1169.87;999.90;;;5.50;99.90;;;;;;5524259;25;20456;-70
2024/04/20 02:58:28;;;;;;;1167.40;999.90;;;5.50;99.90;;;;;;5491492;25;20477;-70
2024/04/20 03:00:58;;;;;;;1175.80;999.43;;;5.50;99.90;;;;;;5511508;26;20460;-70
2024/04/20 03:03:27;;;;;;;1136.07;990.60;;;5.60;99.90;;;;;;5512309;25;20460;-71
2024/04/20 03:05:56;;;;;;;1136.17;968.73;;;5.60;99.90;;;;;;5515935;25;20456;-70
2024/04/20 03:08:24;;;;;;;1108.63;968.40;;;5.60;99.90;;;;;;5510426;25;20574;-71
2024/04/20 03:10:55;;;;;;;1142.70;982.00;;;5.60;99.90;;;;;;5486998;26;21128;-70
2024/04/20 03:13:24;;;;;;;1165.90;992.83;;;5.60;99.90;;;;;;5486912;26;20514;-70
2024/04/20 03:16:03;;;;;;;1148.67;998.37;;;5.70;99.90;;;;;;5523714;25;20475;-70
2024/04/20 03:18:32;;;;;;;1143.60;999.90;;;5.70;99.90;;;;;;5508230;25;21074;-70
2024/04/20 03:21:01;;;;;;;1149.10;999.90;;;5.70;99.90;;;;;;5526463;25;20465;-70
2024/04/20 03:23:30;;;;;;;1157.40;999.90;;;5.70;99.90;;;;;;5495886;25;20906;-71
2024/04/20 03:26:01;;;;;;;1130.80;999.90;;;5.80;99.90;;;;;;5527209;25;20511;-70
2024/04/20 03:28:27;;;;;;;1128.37;999.90;;;5.80;99.90;;;;;;5494010;25;20473;-70
2024/04/20 03:30:55;;;;;;;1115.10;997.53;;;5.70;99.90;;;;;;5507726;26;20865;-70
2024/04/20 03:33:28;;;;;;;1134.73;999.90;;;5.80;99.90;;;;;;5503286;25;20248;-70
2024/04/20 03:35:57;;;;;;;1134.77;999.90;;;5.80;99.90;;;;;;5490621;26;20566;-70
2024/04/20 03:38:26;;;;;;;1123.47;999.90;;;5.80;99.90;;;;;;5490516;26;20560;-70
2024/04/20 03:40:54;;;;;;;1120.33;999.90;;;5.80;99.90;;;;;;5490155;26;20913;-70
2024/04/20 03:43:25;;;;;;;1129.97;999.90;;;5.80;99.90;;;;;;5520417;26;20955;-70
2024/04/20 03:45:54;;;;;;;1128.10;999.90;;;5.80;99.90;;;;;;5513371;25;20638;-69
2024/04/20 03:48:24;;;;;;;1124.43;999.90;;;5.90;99.90;;;;;;5519640;25;20568;-70
2024/04/20 03:50:57;;;;;;;1132.87;999.90;;;5.90;99.90;;;;;;5506938;26;20546;-70
2024/04/20 03:53:26;;;;;;;1121.90;999.90;;;5.90;99.90;;;;;;5526097;25;20623;-70
2024/04/20 03:55:55;;;;;;;1127.47;999.90;;;5.90;99.90;;;;;;5514762;25;20575;-69
2024/04/20 03:58:26;;;;;;;1121.03;999.90;;;5.90;99.90;;;;;;5525488;25;20872;-70
2024/04/20 04:00:55;;;;;;;1124.47;999.90;;;5.90;99.90;;;;;;5514254;26;21022;-70
2024/04/20 04:03:26;;;;;;;1129.27;999.90;;;5.90;99.90;;;;;;5525618;25;20464;-70
2024/04/20 04:05:55;;;;;;;1153.97;999.90;;;6.00;99.90;;;;;;5527687;25;20513;-71
2024/04/20 04:08:24;;;;;;;1143.90;999.90;;;6.00;99.90;;;;;;5529801;26;20456;-70
2024/04/20 04:10:53;;;;;;;1143.77;999.90;;;6.00;99.90;;;;;;5529261;26;20457;-70
2024/04/20 04:13:21;;;;;;;1136.53;999.90;;;6.00;99.90;;;;;;5529365;25;20464;-66
2024/04/20 04:15:52;;;;;;;1147.77;999.90;;;5.90;99.90;;;;;;5503766;25;20465;-66
2024/04/20 04:18:21;;;;;;;1115.83;999.90;;;5.80;99.90;;;;;;5490035;26;20779;-65
2024/04/20 04:20:49;;;;;;;1110.20;999.90;;;5.70;99.90;;;;;;5497129;26;20532;-66
2024/04/20 04:23:18;;;;;;;1094.67;992.03;;;5.70;99.90;;;;;;5525654;25;20512;-68
2024/04/20 04:25:47;;;;;;;1107.70;999.90;;;5.70;99.90;;;;;;5512030;26;20468;-67
2024/04/20 04:28:15;;;;;;;1076.90;976.60;;;5.70;99.90;;;;;;5526453;25;20827;-66
2024/04/20 04:30:43;;;;;;;1072.90;971.80;;;5.70;99.90;;;;;;5519781;25;20521;-66
2024/04/20 04:33:14;;;;;;;1073.70;972.53;;;5.70;99.90;;;;;;5488068;26;20541;-65
2024/04/20 04:35:43;;;;;;;1076.93;979.20;;;5.70;99.90;;;;;;5510864;26;20464;-67
2024/04/20 04:38:11;;;;;;;1082.83;985.13;;;5.70;99.90;;;;;;5526294;25;20519;-66
2024/04/20 04:40:40;;;;;;;1057.47;961.97;;;5.70;99.90;;;;;;5526397;25;20627;-66
2024/04/20 04:43:08;;;;;;;1077.00;979.60;;;5.60;99.90;;;;;;5525064;25;20535;-68
2024/04/20 04:45:37;;;;;;;1068.27;969.63;;;5.60;99.90;;;;;;5521817;25;20549;-67
2024/04/20 04:48:06;;;;;;;1074.43;975.20;;;5.60;99.90;;;;;;5489428;26;20469;-68
2024/04/20 04:50:38;;;;;;;1053.43;954.93;;;5.60;99.90;;;;;;5519545;26;20456;-68
2024/04/20 04:53:06;;;;;;;1060.37;963.67;;;5.60;99.90;;;;;;5518195;25;20544;-69
2024/04/20 04:55:35;;;;;;;1053.30;956.30;;;5.60;99.90;;;;;;5498780;25;20518;-69
2024/04/20 04:58:04;;;;;;;1057.50;961.73;;;5.60;99.90;;;;;;5500713;26;20573;-69
2024/04/20 05:00:33;;;;;;;1042.13;947.03;;;5.60;99.90;;;;;;5526151;25;20540;-69
2024/04/20 05:03:01;;;;;;;1039.23;945.73;;;5.70;99.90;;;;;;5525447;25;20472;-70
2024/04/20 05:05:31;;;;;;;1019.13;928.70;;;5.70;99.90;;;;;;5527454;25;20457;-69
2024/04/20 05:08:02;;;;;;;1008.73;919.33;;;5.80;99.90;;;;;;5525998;25;20452;-69
2024/04/20 05:10:30;;;;;;;1004.40;914.70;;;5.80;99.90;;;;;;5525649;25;20583;-69
2024/04/20 05:12:59;;;;;;;1011.07;921.60;;;5.80;99.90;;;;;;5525194;25;20456;-70
2024/04/20 05:15:27;;;;;;;1009.63;920.60;;;5.90;99.90;;;;;;5510176;25;20825;-70
2024/04/20 05:17:56;;;;;;;1004.67;915.73;;;5.90;99.90;;;;;;5525237;25;20898;-70
2024/04/20 05:20:24;;;;;;;991.87;904.50;;;5.90;99.90;;;;;;5522812;25;20541;-70
2024/04/20 05:22:53;;;;;;;996.13;908.03;;;6.00;99.90;;;;;;5520421;25;20540;-70
2024/04/20 05:25:24;;;;;;;982.13;894.73;;;6.00;99.90;;;;;;5507833;26;20554;-71
2024/04/20 05:27:52;;;;;;;970.93;885.43;;;6.00;99.90;;;;;;5525537;25;20564;-70
2024/04/20 05:30:21;;;;;;;965.50;880.40;;;6.00;99.90;;;;;;5520348;25;20464;-71
2024/04/20 05:32:49;;;;;;;941.27;857.27;;;6.00;99.90;;;;;;5494290;26;20560;-70
2024/04/20 05:35:18;;;;;;;947.97;862.87;;;6.00;99.90;;;;;;5503238;26;20468;-70
2024/04/20 05:37:47;;;;;;;960.53;874.77;;;6.00;99.90;;;;;;5516787;26;20543;-71
2024/04/20 05:40:15;;;;;;;949.87;864.57;;;6.10;99.90;;;;;;5510140;25;20585;-71
2024/04/20 05:42:46;;;;;;;956.10;870.50;;;6.20;99.90;;;;;;5523586;25;21136;-71
2024/04/20 05:45:17;;;;;;;929.73;845.33;;;6.20;99.90;;;;;;5516363;25;20468;-72
2024/04/20 05:47:45;;;;;;;951.77;866.13;;;6.20;99.90;;;;;;5516182;26;20468;-72
2024/04/20 05:50:14;;;;;;;948.13;863.23;;;6.20;99.90;;;;;;5509806;25;20520;-71
2024/04/20 05:52:42;;;;;;;953.87;868.53;;;6.30;99.90;;;;;;5524172;25;20566;-71
2024/04/20 05:55:10;;;;;;;958.93;872.67;;;6.30;99.90;;;;;;5509972;25;20476;-71
2024/04/20 05:57:39;;;;;;;949.73;864.70;;;6.30;99.90;;;;;;5516735;25;20468;-72
2024/04/20 06:00:11;;;;;;;961.70;875.50;;;6.30;99.90;;;;;;5507125;25;20461;-73
2024/04/20 06:02:39;;;;;;;952.13;867.13;;;6.30;99.90;;;;;;5508313;26;20466;-72
2024/04/20 06:05:08;;;;;;;944.33;859.63;;;6.20;99.90;;;;;;5521215;25;21073;-72
2024/04/20 06:07:39;;;;;;;949.33;863.33;;;6.20;99.90;;;;;;5507887;25;20480;-76
2024/04/20 06:10:08;;;;;;;939.63;854.27;;;6.30;99.90;;;;;;5519518;25;20460;-72
2024/04/20 06:12:36;;;;;;;942.37;857.83;;;6.30;99.90;;;;;;5519371;25;20468;-72
2024/04/20 06:15:02;;;;;;;941.47;857.87;;;6.40;99.90;;;;;;5509372;26;20464;-72
2024/04/20 06:17:34;;;;;;;962.33;876.77;;;6.30;99.90;;;;;;5515024;25;21010;-71
2024/04/20 06:20:02;;;;;;;947.60;862.70;;;6.30;99.90;;;;;;5519844;25;20456;-72
2024/04/20 06:22:31;;;;;;;945.70;861.60;;;6.30;99.90;;;;;;5521000;25;20456;-72
2024/04/20 06:24:59;;;;;;;931.77;849.37;;;6.40;99.90;;;;;;5487709;26;20469;-71
2024/04/20 06:27:28;;;;;;;943.20;860.50;;;6.40;99.90;;;;;;5523372;25;20476;-67
2024/04/20 06:29:56;;;;;;;878.73;798.93;;;6.50;99.90;;;;;;5517622;26;20452;-71
2024/04/20 06:32:25;;;;;;;859.50;780.90;;;6.60;99.90;;;;;;5514228;25;20818;-71
2024/04/20 06:34:56;;;;;;;853.90;775.50;;;6.60;99.90;;;;;;5501420;26;20890;-71
2024/04/20 06:37:24;;;;;;;846.30;767.70;;;6.60;99.90;;;;;;5513049;25;20472;-71
2024/04/20 06:39:53;;;;;;;843.23;763.93;;;6.70;99.90;;;;;;5487790;26;20470;-71
2024/04/20 06:42:21;;;;;;;853.80;774.20;;;6.70;99.90;;;;;;5502310;26;20472;-71
2024/04/20 06:44:53;;;;;;;852.73;774.03;;;6.60;99.90;;;;;;5524366;25;20570;-71
2024/04/20 06:47:22;;;;;;;853.50;775.20;;;6.70;99.90;;;;;;5523951;25;20495;-71
2024/04/20 06:49:53;;;;;;;844.20;765.53;;;6.70;99.90;;;;;;5506376;26;20555;-71
2024/04/20 06:52:24;;;;;;;847.13;769.30;;;6.70;99.90;;;;;;5523390;25;20885;-71
2024/04/20 06:54:53;;;;;;;837.67;759.40;;;6.70;99.90;;;;;;5525570;25;20541;-72
2024/04/20 06:57:18;;;;;;;829.97;752.17;;;6.70;99.90;;;;;;5497228;25;21122;-71
2024/04/20 06:59:47;;;;;;;825.97;748.27;;;6.80;99.90;;;;;;5491241;26;20473;-72
2024/04/20 07:02:15;;;;;;;822.73;745.03;;;6.80;99.90;;;;;;5505621;26;20245;-69
2024/04/20 07:04:44;;;;;;;836.00;759.20;;;6.90;99.90;;;;;;5489288;26;20458;-71
2024/04/20 07:07:12;;;;;;;835.17;758.30;;;7.00;99.90;;;;;;5489754;26;20828;-70
2024/04/20 07:09:45;;;;;;;826.77;750.07;;;7.10;99.90;;;;;;5490047;26;20454;-69
2024/04/20 07:12:14;;;;;;;819.13;742.37;;;7.20;99.90;;;;;;5507169;26;20633;-70
2024/04/20 07:14:42;;;;;;;820.83;743.77;;;7.10;99.90;;;;;;5526656;25;20460;-70
2024/04/20 07:17:11;;;;;;;829.13;752.90;;;7.10;99.90;;;;;;5500317;25;20457;-70
2024/04/20 07:19:39;;;;;;;836.93;760.60;;;7.00;99.90;;;;;;5521455;25;20600;-70
2024/04/20 07:22:08;;;;;;;842.00;765.57;;;6.90;99.90;;;;;;5502092;25;20457;-70
2024/04/20 07:24:37;;;;;;;839.07;763.37;;;6.70;99.90;;;;;;5517848;26;21031;-70
2024/04/20 07:27:09;;;;;;;833.17;757.77;;;6.70;99.90;;;;;;5526605;25;20460;-75
2024/04/20 07:29:38;;;;;;;821.17;746.80;;;6.70;99.90;;;;;;5508642;25;20552;-71
2024/04/20 07:32:07;;;;;;;814.43;741.20;;;6.70;99.90;;;;;;5523251;25;20467;-72
2024/04/20 07:34:35;;;;;;;809.90;737.50;;;6.70;99.90;;;;;;5526401;25;20582;-72
2024/04/20 07:37:05;;;;;;;817.13;745.03;;;6.70;99.90;;;;;;5525657;25;20947;-72
2024/04/20 07:39:33;;;;;;;816.43;744.57;;;6.60;99.90;;;;;;5507596;25;20464;-72
2024/04/20 07:42:02;;;;;;;816.43;744.13;;;6.60;99.90;;;;;;5521111;25;21066;-72
2024/04/20 07:44:34;;;;;;;817.03;745.17;;;6.70;99.90;;;;;;5506013;26;20473;-73
2024/04/20 07:47:04;;;;;;;815.90;745.27;;;6.60;99.90;;;;;;5525263;25;20572;-73
2024/04/20 07:49:33;;;;;;;818.20;747.20;;;6.50;99.90;;;;;;5519944;25;20890;-73
2024/04/20 07:52:01;;;;;;;822.63;752.03;;;6.50;99.90;;;;;;5525953;25;20460;-72
2024/04/20 07:54:31;;;;;;;845.00;772.10;;;6.60;99.90;;;;;;5521809;25;20376;-77
2024/04/20 07:57:00;;;;;;;832.60;760.93;;;6.70;99.90;;;;;;5526988;25;20212;-73
2024/04/20 07:59:28;;;;;;;831.77;759.87;;;6.70;99.90;;;;;;5527224;25;20460;-73
2024/04/20 08:02:00;;;;;;;827.20;755.50;;;6.90;99.90;;;;;;5505240;25;20572;-72
2024/04/20 08:04:28;;;;;;;826.83;754.93;;;6.80;99.90;;;;;;5526073;26;20528;-71
2024/04/20 08:06:57;;;;;;;828.43;756.43;;;6.80;99.90;;;;;;5514630;25;20802;-71
2024/04/20 08:09:25;;;;;;;818.90;747.10;;;6.80;99.90;;;;;;5525481;25;21116;-74
2024/04/20 08:11:57;;;;;;;821.93;750.77;;;6.90;99.90;;;;;;5515145;26;21175;-70
2024/04/20 08:14:25;;;;;;;829.23;758.03;;;7.00;99.90;;;;;;5514098;26;20508;-71
2024/04/20 08:16:53;;;;;;;830.93;759.73;;;7.00;99.90;;;;;;5524477;25;20591;-70
2024/04/20 08:19:28;;;;;;;828.50;756.10;;;7.10;99.90;;;;;;5525335;25;21152;-70
2024/04/20 08:21:56;;;;;;;836.03;763.93;;;7.30;99.90;;;;;;5503408;25;20960;-70
2024/04/20 08:24:25;;;;;;;847.23;774.83;;;7.40;99.90;;;;;;5507852;26;20476;-67
2024/04/20 08:26:55;;;;;;;844.80;771.90;;;7.70;99.90;;;;;;5501155;25;20477;-70
2024/04/20 08:29:23;;;;;;;858.07;783.27;;;7.90;99.90;;;;;;5517328;26;20520;-70
2024/04/20 08:31:52;;;;;;;877.90;801.50;;;7.90;99.90;;;;;;5515748;25;20469;-70
2024/04/20 08:34:20;;;;;;;894.97;816.33;;;8.00;99.90;;;;;;5506086;26;20468;-69
2024/04/20 08:36:51;;;;;;;883.43;804.93;;;8.20;99.90;;;;;;5502512;25;20458;-70
2024/04/20 08:39:20;;;;;;;898.17;818.07;;;8.40;99.90;;;;;;5488344;26;20637;-70
2024/04/20 08:41:53;;;;;;;911.20;830.00;;;8.40;99.90;;;;;;5487372;26;20543;-70
2024/04/20 08:44:22;;;;;;;926.13;844.60;;;8.40;99.90;;;;;;5488353;26;20533;-70
2024/04/20 08:46:54;;;;;;;917.13;837.13;;;8.30;99.90;;;;;;5524706;25;20499;-70
2024/04/20 08:49:27;;;;;;;922.43;842.07;;;8.10;99.90;;;;;;5509542;25;20472;-70
2024/04/20 08:51:58;;;;;;;938.90;857.30;;;8.20;99.90;;;;;;5499916;25;20568;-70
2024/04/20 08:54:29;;;;;;;929.77;848.77;;;8.30;99.90;;;;;;5487660;26;20534;-70
2024/04/20 08:57:01;;;;;;;939.87;859.10;;;8.60;99.90;;;;;;5488164;26;20533;-70
2024/04/20 08:59:29;;;;;;;937.23;857.20;;;8.90;99.90;;;;;;5520506;26;20876;-70
2024/04/20 09:01:58;;;;;;;949.50;869.20;;;9.00;99.90;;;;;;5524562;25;20460;-70
2024/04/20 09:04:27;;;;;;;948.47;868.77;;;9.00;99.90;;;;;;5509574;25;20501;-70
2024/04/20 09:06:59;;;;;;;951.83;872.60;;;9.10;99.90;;;;;;5500421;25;20458;-66
2024/04/20 09:09:27;;;;;;;953.17;874.67;;;8.90;99.90;;;;;;5517344;26;20441;-70
2024/04/20 09:11:56;;;;;;;957.60;880.70;;;9.00;99.90;;;;;;5498391;26;20547;-70
2024/04/20 09:14:25;;;;;;;965.87;888.83;;;9.00;99.90;;;;;;5512374;25;20458;-70
2024/04/20 09:16:53;;;;;;;979.13;902.37;;;9.20;99.90;;;;;;5507019;25;21009;-69
2024/04/20 09:19:25;;;;;;;974.00;898.03;;;9.30;97.80;;;;;;5520513;26;20551;-70
2024/04/20 09:21:53;;;;;;;968.80;894.90;;;9.40;97.80;;;;;;5500263;25;20501;-69
2024/04/20 09:24:24;;;;;;;959.83;886.47;;;9.50;97.80;;;;;;5511823;26;20543;-69
2024/04/20 09:26:53;;;;;;;969.50;897.67;;;9.60;97.90;;;;;;5510255;25;20571;-67
2024/04/20 09:29:23;;;;;;;987.00;916.97;;;9.70;91.30;;;;;;5498397;26;20456;-70
2024/04/20 09:31:52;;;;;;;977.57;913.70;;;10.20;91.00;;;;;;5512622;26;20460;-69
2024/04/20 09:34:23;;;;;;;905.13;849.43;;;10.50;86.00;;;;;;5504710;26;20458;-69
2024/04/20 09:36:49;;;;;;;864.90;812.70;;;10.40;87.70;;;;;;5517524;25;20943;-69
2024/04/20 09:39:18;;;;;;;838.83;789.97;;;10.50;91.10;;;;;;5511231;25;20372;-70
2024/04/20 09:41:51;;;;;;;660.80;627.13;;;10.30;91.40;;;;;;5509837;26;20348;-69
2024/04/20 09:44:20;;;;;;;645.37;612.77;;;9.70;97.90;;;;;;5522122;25;20342;-69
2024/04/20 09:46:50;;;;;;;434.60;414.60;;;9.70;94.70;;;;;;5510453;26;20413;-70
2024/04/20 09:49:19;;;;;;;522.87;498.17;;;10.30;91.10;;;;;;5510862;25;20577;-68
2024/04/20 09:51:57;;;;;;;505.70;481.93;;;11.00;94.90;;;;;;5510775;26;20472;-69
2024/04/20 09:54:28;;;;;;;71.77;68.50;;;11.20;91.50;;;;;;5504501;25;20469;-69
2024/04/20 09:57:01;;;;;;;33.90;32.30;;;11.60;78.40;;;;;;5525064;25;20456;-69
2024/04/20 09:59:31;;;;;;;7.10;6.43;;;11.20;78.00;;;;;;5516973;25;20526;-69
2024/04/20 10:02:01;;;;;;;5.50;3.00;;;10.90;77.70;;;;;;5514496;25;20477;-68
2024/04/20 10:04:32;;;;;;;3.90;2.13;;;10.60;77.40;;;;;;5516964;26;20930;-69
2024/04/20 10:07:03;;;;;;;14.00;5.43;;;10.90;77.70;;;;;;5493730;25;20592;-69
2024/04/20 10:09:34;;;;;;;5.20;4.33;;;11.40;78.20;;;;;;5508026;26;20456;-69
2024/04/20 10:12:07;;;;;;;5.40;2.70;;;11.50;78.30;;;;;;5524081;25;20456;-69
2024/04/20 10:14:35;;;;;;;7.83;2.30;;;11.50;71.70;;;;;;5524819;25;20921;-68
2024/04/20 10:17:04;;;;;;;5.83;3.10;;;11.20;70.90;;;;;;5516913;25;20452;-70
2024/04/20 10:19:45;;;;;;;5.50;2.07;;;11.10;85.40;;;;;;5519740;25;20470;-69
2024/04/20 10:22:14;;;;;;;3.40;1.00;;;8.70;99.90;;;;;;5521834;25;20472;-72
2024/04/20 10:24:54;;;;;;;3.40;1.10;;;8.20;99.90;;;;;;5503389;25;20533;-72
2024/04/20 10:27:30;;;;;;;3.40;1.50;;;8.00;99.90;;;;;;5487688;26;20519;-71
2024/04/20 10:30:10;;;;;;;3.50;1.70;;;7.70;99.90;;;;;;5496861;26;20561;-70
2024/04/20 10:32:39;;;;;;;3.63;2.30;;;7.10;99.90;;;;;;5518811;25;20487;-68
2024/04/20 10:35:08;;;;;;;3.80;3.03;;;6.80;99.90;;;;;;5495303;25;20999;-68
2024/04/20 10:37:37;;;;;;;3.90;3.00;;;6.90;99.90;;;;;;5497723;26;20394;-69
2024/04/20 10:40:16;;;;;;;3.70;2.80;;;6.90;99.90;;;;;;5519700;25;20572;-69
2024/04/20 10:42:47;;;;;;;6.13;5.63;;;7.10;99.90;;;;;;5523278;26;20577;-70
2024/04/20 10:45:17;;;;;;;7.77;7.27;;;7.20;99.90;;;;;;5524375;25;20532;-71
2024/04/20 10:47:48;;;;;;;10.60;10.00;;;8.10;99.90;;;;;;5502703;25;20465;-71
2024/04/20 10:50:18;;;;;;;13.70;13.00;;;8.90;99.90;;;;;;5502158;26;20464;-72
2024/04/20 10:52:47;;;;;;;18.63;17.80;;;9.50;99.90;;;;;;5502268;26;20920;-72
2024/04/20 10:55:16;;;;;;;29.63;28.43;;;9.90;99.90;;;;;;5517752;26;20578;-73
2024/04/20 10:57:47;;;;;;;44.40;42.70;;;10.20;99.90;;;;;;5524258;25;20500;-73
2024/04/20 11:00:22;;;;;;;75.33;72.67;;;10.20;99.90;;;;;;5524329;25;20509;-72
2024/04/20 11:02:54;;;;;;;82.40;79.50;;;10.70;99.90;;;;;;5523490;25;20460;-72
2024/04/20 11:05:24;;;;;;;104.93;101.23;;;10.70;99.90;;;;;;5523988;25;20569;-71
2024/04/20 11:08:00;;;;;;;95.40;92.10;;;11.60;99.90;;;;;;5515940;25;20454;-72
2024/04/20 11:10:29;;;;;;;82.20;79.30;;;11.90;91.70;;;;;;5486988;26;20523;-72
2024/04/20 11:13:05;;;;;;;76.17;73.37;;;11.90;63.20;;;;;;5486053;26;20525;-71
2024/04/20 11:15:35;;;;;;;72.87;70.10;;;12.60;75.90;;;;;;5520758;26;20512;-70
2024/04/20 11:18:03;;;;;;;63.40;61.00;;;13.70;64.30;;;;;;5513467;25;20530;-69
2024/04/20 11:20:32;;;;;;;58.73;56.43;;;14.00;55.40;;;;;;5489981;26;20573;-70
2024/04/20 11:23:03;;;;;;;51.30;49.30;;;12.60;46.30;;;;;;5513392;25;20474;-70
2024/04/20 11:25:32;;;;;;;43.00;41.30;;;11.70;54.40;;;;;;5504920;26;20464;-71
2024/04/20 11:28:04;;;;;;;25.10;24.00;;;10.20;99.90;;;;;;5498235;25;20462;-68
2024/04/20 11:30:40;;;;;;;23.00;22.00;;;7.80;99.90;;;;;;5520280;26;21091;-69
2024/04/20 11:33:08;;;;;;;23.50;22.50;;;7.10;99.90;;;;;;5522831;25;20452;-70
2024/04/20 11:35:37;;;;;;;24.40;23.37;;;7.20;99.90;;;;;;5523255;25;21315;-71
2024/04/20 11:38:08;;;;;;;25.43;24.33;;;7.00;99.90;;;;;;5496636;25;20474;-71
2024/04/20 11:40:37;;;;;;;29.10;27.90;;;7.10;99.90;;;;;;5486949;26;21056;-71
2024/04/20 11:43:08;;;;;;;30.57;29.27;;;7.20;99.90;;;;;;5515867;26;20528;-71
2024/04/20 11:45:36;;;;;;;32.50;31.20;;;7.30;99.90;;;;;;5492558;25;20835;-72
2024/04/20 11:48:09;;;;;;;33.97;32.57;;;7.50;99.90;;;;;;5516494;26;20513;-72
2024/04/20 11:50:40;;;;;;;37.97;36.47;;;8.40;99.90;;;;;;5526973;25;20456;-72
2024/04/20 11:55:54;;;;;;;51.10;49.00;;;9.70;99.90;;;;;;5521702;26;20490;-71
2024/04/20 11:58:25;;;;;;;57.30;55.00;;;9.70;99.90;;;;;;5490241;26;20820;-71
2024/04/20 12:00:54;;;;;;;65.40;62.70;;;10.20;99.90;;;;;;5518788;25;20582;-71
2024/04/20 12:03:23;;;;;;;70.00;67.20;;;10.80;99.90;;;;;;5489665;26;20469;-70
2024/04/20 12:05:51;;;;;;;75.60;72.50;;;11.80;99.90;;;;;;5526984;25;20508;-71
2024/04/20 12:08:20;;;;;;;77.67;74.50;;;11.60;95.00;;;;;;5526778;25;20479;-71
2024/04/20 12:10:49;;;;;;;67.90;65.10;;;11.30;91.50;;;;;;5526597;25;20505;-71
2024/04/20 12:13:17;;;;;;;65.57;62.93;;;10.80;77.70;;;;;;5511797;25;20854;-71
2024/04/20 12:15:48;;;;;;;63.60;61.00;;;11.20;75.30;;;;;;5490110;26;20461;-71
2024/04/20 12:18:17;;;;;;;64.50;61.70;;;11.90;78.60;;;;;;5519472;26;20579;-70
2024/04/20 12:20:45;;;;;;;67.50;64.60;;;12.90;79.60;;;;;;5505531;25;20454;-69
2024/04/20 12:23:14;;;;;;;64.80;62.10;;;13.30;63.90;;;;;;5502479;26;20577;-67
2024/04/20 12:25:48;;;;;;;63.60;61.00;;;13.80;47.40;;;;;;5526901;25;20597;-70
2024/04/20 12:28:16;;;;;;;62.00;59.50;;;13.80;46.00;;;;;;5526686;25;20573;-69
2024/04/20 12:30:48;;;;;;;59.00;56.60;;;14.20;30.00;;;;;;5505157;25;20863;-69
2024/04/20 12:33:16;;;;;;;54.23;52.03;;;14.50;34.70;;;;;;5488683;26;20664;-69